Van Vleet, MS (38877)

10:37 AM CDT on September 17, 2014 (GMT -0500)
Aberdeen / Amory | Change Station
CLOSE
Current Station
Airport
Location: Aberdeen / Amory,
Elevation: 223 ft
Nearby Weather Stations

Elev 223 ft 33.87 °N, 88.49 °W | Updated 2 minutes ago

Clear
Clear
81 °F
Feels Like 82 °F
N
4
Wind Variable Wind from NNE

Today
High -- | Low -- °F
--% Chance of Precip.
Yesterday
High -- | Low -- °F
Precip. -- in
6:40 AM 6:59 PM
Waning Crescent, 35% visible
Pressure 30.02 in
Visibility 8.0 miles
Clouds Clear
Heat Index 82 °F
Dew Point 64 °F
Humidity 58%
Rainfall 0.00 in
Snow Depth Not available.
UV 6 out of 12
Pollen 8.40 out of 12
Air Quality Not available.
Flu Activity Not available.
METAR KM40 171535Z AUTO 03003KT 8SM CLR 27/18 A3002 RMK AO2

More Conditions Fewer Conditions

Pressure 30.02 in
Visibility 8.0 miles
Clouds Clear
Heat Index 82 °F
Dew Point 64 °F
Humidity 58%
Rainfall 0.00 in
Snow Depth Not available.
UV 6 out of 12
Pollen 8.40 out of 12
Air Quality Not available.
Flu Activity Not available.
METAR KM40 171535Z AUTO 03003KT 8SM CLR 27/18 A3002 RMK AO2

More Conditions Fewer Conditions

10-Day Weather Forecast

Almanac

Astronomy

Sep. 17, 2014 Rise Set
Actual Time 6:40 AM CDT 6:59 PM CDT
Civil Twilight 6:15 AM CDT 7:24 PM CDT
Nautical Twilight 5:46 AM CDT 7:53 PM CDT
Astronomical Twilight 5:16 AM CDT 8:23 PM CDT
Moon 12:51 AM CDT 2:58 PM CDT
Length of Visible Light 13h 09m
Length of Day
12h 19m
Tomorrow will be 2m 6s shorter.
Waning Crescent, 35% of the Moon is Illuminated
Today
Waning Crescent
Sep 24
New
Oct 1
First Quarter
Oct 8
Full
Oct 15
Last Quarter

Today's Extremes

State Highs State Lows

Community

WunderPhotos

Upload Photos

1,754,068 photos uploaded!

WunderBlogs® & News

Nearby

Snow Depth

Station Depth Elevation
No new snow has been reported.

Earthquake Activity

City Distance Mag. Time & Date
No recent earthquake activity has been reported nearby.
Minimum magnitude displayed is 2.5.

Coastal Water Temperatures

Place Temperature
No Stations Reporting

Nearby Weather Stations